createdAt,value
2018-06-17T00:01:17.695Z,6.80
2018-06-17T00:03:49.719Z,6.27
2018-06-17T00:06:23.467Z,6.30
2018-06-17T00:08:55.639Z,6.50
2018-06-17T00:11:26.802Z,6.07
2018-06-17T00:13:59.481Z,6.17
2018-06-17T00:16:31.135Z,6.00
2018-06-17T00:19:03.402Z,5.97
2018-06-17T00:21:35.868Z,6.40
2018-06-17T00:24:07.639Z,7.40
2018-06-17T00:26:39.257Z,6.37
2018-06-17T00:29:10.711Z,5.90
2018-06-17T00:31:42.464Z,6.10
2018-06-17T00:34:15.491Z,5.97
2018-06-17T00:36:47.242Z,6.10
2018-06-17T00:39:19.215Z,6.10
2018-06-17T00:41:50.928Z,5.97
2018-06-17T00:44:22.693Z,6.00
2018-06-17T00:46:55.055Z,6.77
2018-06-17T00:49:27.925Z,5.60
2018-06-17T00:52:00.118Z,5.77
2018-06-17T00:54:32.180Z,5.80
2018-06-17T00:57:14.123Z,6.07
2018-06-17T00:59:45.788Z,5.97
2018-06-17T01:02:22.097Z,6.37
2018-06-17T01:04:53.979Z,6.43
2018-06-17T01:07:25.736Z,6.63
2018-06-17T01:09:57.743Z,6.73
2018-06-17T01:12:30.583Z,6.70
2018-06-17T01:15:03.150Z,6.63
2018-06-17T01:17:34.849Z,6.30
2018-06-17T01:20:06.663Z,6.80
2018-06-17T01:22:39.997Z,5.67
2018-06-17T01:25:12.089Z,5.97
2018-06-17T01:27:44.001Z,5.90
2018-06-17T01:30:15.752Z,6.30
2018-06-17T01:32:47.338Z,6.70
2018-06-17T01:35:19.691Z,6.40
2018-06-17T01:37:51.440Z,6.13
2018-06-17T01:40:23.745Z,6.40
2018-06-17T01:42:56.292Z,7.10
2018-06-17T01:45:27.968Z,6.40
2018-06-17T01:48:00.303Z,6.70
2018-06-17T01:50:33.336Z,5.97
2018-06-17T01:53:05.803Z,6.47
2018-06-17T01:55:39.677Z,6.13
2018-06-17T01:58:11.555Z,5.40
2018-06-17T02:00:43.610Z,5.87
2018-06-17T02:03:19.995Z,6.00
2018-06-17T02:05:56.190Z,5.93
2018-06-17T02:08:39.896Z,6.30
2018-06-17T02:11:16.321Z,6.27
2018-06-17T02:13:48.520Z,6.30
2018-06-17T02:16:20.627Z,6.23
2018-06-17T02:18:53.016Z,6.70
2018-06-17T02:21:25.752Z,6.10
2018-06-17T02:23:57.676Z,6.10
2018-06-17T02:26:30.253Z,6.60
2018-06-17T02:29:02.207Z,6.37
2018-06-17T02:31:34.073Z,7.20
2018-06-17T02:34:05.969Z,6.67
2018-06-17T02:36:38.696Z,6.30
2018-06-17T02:39:11.163Z,6.50
2018-06-17T02:41:43.207Z,5.97
2018-06-17T02:44:15.291Z,6.03
2018-06-17T02:46:52.863Z,6.40
2018-06-17T02:49:30.122Z,6.27
2018-06-17T02:52:09.761Z,6.23
2018-06-17T02:54:45.010Z,6.53
2018-06-17T02:57:19.324Z,6.57
2018-06-17T02:59:51.744Z,6.13
2018-06-17T03:02:23.862Z,6.43
2018-06-17T03:04:56.787Z,7.20
2018-06-17T03:07:28.452Z,6.73
2018-06-17T03:10:01.158Z,7.30
2018-06-17T03:12:33.392Z,7.53
2018-06-17T03:15:05.448Z,7.27
2018-06-17T03:17:37.681Z,7.40
2018-06-17T03:20:09.945Z,7.10
2018-06-17T03:22:42.091Z,6.73
2018-06-17T03:25:20.149Z,7.47
2018-06-17T03:27:56.504Z,6.83
2018-06-17T03:31:33.407Z,6.80
2018-06-17T03:34:05.320Z,6.70
2018-06-17T03:36:37.966Z,7.40
2018-06-17T03:39:09.954Z,7.70
2018-06-17T03:41:41.946Z,7.40
2018-06-17T03:44:13.915Z,6.73
2018-06-17T03:46:46.099Z,6.90
2018-06-17T03:49:18.111Z,7.10
2018-06-17T03:51:49.795Z,6.60
2018-06-17T03:54:22.164Z,6.90
2018-06-17T03:56:54.239Z,7.30
2018-06-17T03:59:26.015Z,7.00
2018-06-17T04:01:58.300Z,6.73
2018-06-17T04:04:34.432Z,6.77
2018-06-17T04:07:06.093Z,6.33
2018-06-17T04:09:38.070Z,6.50
2018-06-17T04:12:11.103Z,6.27
2018-06-17T04:14:42.969Z,6.63
2018-06-17T04:17:16.408Z,7.57
2018-06-17T04:19:47.989Z,6.63
2018-06-17T04:22:19.938Z,6.37
2018-06-17T04:24:52.334Z,7.37
2018-06-17T04:27:24.359Z,6.70
2018-06-17T04:29:56.669Z,7.00
2018-06-17T04:32:28.342Z,6.40
2018-06-17T04:35:00.274Z,6.67
2018-06-17T04:37:32.573Z,6.53
2018-06-17T04:40:04.133Z,6.07
2018-06-17T04:42:36.021Z,6.67
2018-06-17T04:45:07.809Z,6.63
2018-06-17T04:47:39.743Z,6.37
2018-06-17T04:50:11.989Z,6.60
2018-06-17T04:52:44.054Z,6.53
2018-06-17T04:55:15.874Z,6.63
2018-06-17T04:57:47.543Z,6.70
2018-06-17T05:00:20.585Z,7.03
2018-06-17T05:02:52.419Z,7.17
2018-06-17T05:05:24.944Z,6.00
2018-06-17T05:07:56.980Z,6.77
2018-06-17T05:10:29.341Z,6.90
2018-06-17T05:13:02.840Z,7.40
2018-06-17T05:15:35.705Z,7.00
2018-06-17T05:18:07.500Z,7.00
2018-06-17T05:20:39.209Z,6.93
2018-06-17T05:23:11.224Z,7.07
2018-06-17T05:25:43.012Z,6.73
2018-06-17T05:28:15.012Z,7.20
2018-06-17T05:30:47.137Z,7.10
2018-06-17T05:33:20.404Z,6.50
2018-06-17T05:35:52.253Z,7.07
2018-06-17T05:38:24.276Z,7.37
2018-06-17T05:40:57.095Z,6.30
2018-06-17T05:43:31.358Z,6.47
2018-06-17T05:46:03.180Z,7.23
2018-06-17T05:48:36.329Z,6.77
2018-06-17T05:51:08.508Z,7.13
2018-06-17T05:53:40.179Z,6.97
2018-06-17T05:56:12.122Z,5.80
2018-06-17T05:58:43.947Z,5.53
2018-06-17T06:01:15.396Z,6.00
2018-06-17T06:03:46.884Z,6.20
2018-06-17T06:06:19.367Z,5.30
2018-06-17T06:08:51.021Z,6.30
2018-06-17T06:11:23.605Z,5.67
2018-06-17T06:13:55.828Z,4.70
2018-06-17T06:16:27.870Z,6.30
2018-06-17T06:19:00.166Z,5.47
2018-06-17T06:21:32.308Z,6.60
2018-06-17T06:24:06.636Z,6.47
2018-06-17T06:26:38.629Z,6.93
2018-06-17T06:29:11.628Z,6.73
2018-06-17T06:31:44.144Z,7.80
2018-06-17T06:34:15.984Z,7.37
2018-06-17T06:36:47.507Z,7.50
2018-06-17T06:39:19.494Z,7.03
2018-06-17T06:41:51.496Z,7.97
2018-06-17T06:44:23.866Z,7.67
2018-06-17T06:46:55.702Z,6.60
2018-06-17T06:49:27.738Z,7.50
2018-06-17T06:51:59.628Z,6.90
2018-06-17T06:54:31.593Z,7.67
2018-06-17T06:57:03.955Z,8.10
2018-06-17T06:59:35.888Z,7.40
2018-06-17T07:02:18.392Z,7.27
2018-06-17T07:04:59.639Z,6.70
2018-06-17T07:07:41.330Z,6.57
2018-06-17T07:10:22.857Z,7.40
2018-06-17T07:12:54.636Z,6.80
2018-06-17T07:15:37.046Z,6.63
2018-06-17T07:18:19.194Z,7.30
2018-06-17T07:20:50.482Z,9.00
2018-06-17T07:23:23.179Z,9.13
2018-06-17T07:28:08.212Z,8.77
2018-06-17T07:30:40.316Z,10.13
2018-06-17T07:33:11.933Z,8.90
2018-06-17T07:35:45.382Z,11.53
2018-06-17T07:38:18.187Z,12.10
2018-06-17T07:40:54.485Z,11.50
2018-06-17T07:43:27.419Z,11.27
2018-06-17T07:46:04.287Z,10.30
2018-06-17T07:50:47.256Z,9.40
2018-06-17T07:53:20.615Z,8.80
2018-06-17T07:55:52.231Z,9.13
2018-06-17T07:58:27.303Z,9.97
2018-06-17T08:01:00.148Z,10.10
2018-06-17T08:03:33.940Z,9.70
2018-06-17T08:06:05.535Z,9.03
2018-06-17T08:08:39.044Z,9.37
2018-06-17T08:11:10.347Z,10.20
2018-06-17T08:13:42.610Z,11.00
2018-06-17T08:16:13.842Z,11.93
2018-06-17T08:18:45.812Z,13.20
2018-06-17T08:21:17.840Z,12.10
2018-06-17T08:23:49.296Z,11.33
2018-06-17T08:26:20.992Z,11.50
2018-06-17T08:28:52.331Z,11.10
2018-06-17T08:31:23.936Z,10.40
2018-06-17T08:33:56.150Z,11.60
2018-06-17T08:36:31.289Z,11.63
2018-06-17T08:39:04.638Z,12.07
2018-06-17T08:41:37.780Z,11.17
2018-06-17T08:44:14.795Z,11.40
2018-06-17T08:46:46.864Z,9.00
2018-06-17T08:49:18.994Z,11.30
2018-06-17T08:51:50.482Z,10.77
2018-06-17T08:54:22.083Z,10.30
2018-06-17T08:56:54.644Z,11.03
2018-06-17T08:59:27.448Z,9.83
2018-06-17T09:02:01.500Z,10.30
2018-06-17T09:04:33.254Z,9.27
2018-06-17T09:07:04.883Z,10.60
2018-06-17T09:09:37.672Z,10.30
2018-06-17T09:12:09.408Z,9.97
2018-06-17T09:14:41.040Z,9.27
2018-06-17T09:17:13.637Z,8.77
2018-06-17T09:19:45.602Z,7.70
2018-06-17T09:22:17.523Z,8.93
2018-06-17T09:24:48.946Z,6.93
2018-06-17T09:27:20.575Z,7.30
2018-06-17T09:29:53.356Z,9.40
2018-06-17T09:32:26.652Z,9.20
2018-06-17T09:34:58.044Z,10.10
2018-06-17T09:37:30.481Z,8.73
2018-06-17T09:40:02.280Z,8.97
2018-06-17T09:42:34.036Z,7.30
2018-06-17T09:45:05.893Z,6.00
2018-06-17T09:47:37.484Z,7.37
2018-06-17T09:50:09.702Z,7.30
2018-06-17T09:52:40.934Z,6.47
2018-06-17T09:55:12.676Z,7.30
2018-06-17T09:57:44.932Z,5.90
2018-06-17T10:00:23.265Z,5.00
2018-06-17T10:02:56.752Z,4.87
2018-06-17T10:05:28.965Z,4.23
2018-06-17T10:08:00.926Z,4.17
2018-06-17T10:10:49.376Z,4.30
2018-06-17T10:13:21.679Z,4.37
2018-06-17T10:15:54.168Z,3.93
2018-06-17T10:18:28.836Z,3.57
2018-06-17T10:21:03.217Z,4.43
2018-06-17T10:23:34.805Z,3.97
2018-06-17T10:26:06.589Z,3.97
2018-06-17T10:28:39.241Z,3.77
2018-06-17T10:31:12.915Z,3.70
2018-06-17T10:33:46.241Z,3.60
2018-06-17T10:36:19.240Z,3.50
2018-06-17T10:38:51.290Z,3.10
2018-06-17T10:41:23.383Z,4.17
2018-06-17T10:43:55.257Z,3.80
2018-06-17T10:46:26.732Z,3.47
2018-06-17T10:48:58.053Z,3.90
2018-06-17T10:51:30.660Z,4.43
2018-06-17T10:54:02.035Z,4.13
2018-06-17T10:56:35.076Z,4.03
2018-06-17T10:59:06.861Z,4.47
2018-06-17T11:01:38.569Z,3.97
2018-06-17T11:04:10.287Z,4.40
2018-06-17T11:06:41.795Z,3.90
2018-06-17T11:09:13.863Z,5.00
2018-06-17T11:11:45.414Z,3.93
2018-06-17T11:14:17.947Z,4.20
2018-06-17T11:16:49.746Z,4.20
2018-06-17T11:19:22.479Z,4.20
2018-06-17T11:21:54.088Z,4.03
2018-06-17T11:24:25.345Z,4.00
2018-06-17T11:26:56.674Z,3.13
2018-06-17T11:29:28.722Z,3.73
2018-06-17T11:32:00.029Z,3.80
2018-06-17T11:34:32.040Z,3.70
2018-06-17T11:37:04.989Z,4.13
2018-06-17T11:39:36.321Z,3.80
2018-06-17T11:42:07.743Z,3.70
2018-06-17T11:44:39.535Z,3.30
2018-06-17T11:47:12.227Z,3.30
2018-06-17T11:49:43.555Z,3.70
2018-06-17T11:52:15.192Z,2.87
2018-06-17T11:54:48.893Z,3.63
2018-06-17T11:57:20.375Z,3.37
2018-06-17T11:59:51.979Z,2.80
2018-06-17T12:02:23.241Z,2.90
2018-06-17T12:04:55.235Z,3.00
2018-06-17T12:07:27.514Z,3.50
2018-06-17T12:09:58.856Z,2.73
2018-06-17T12:12:31.684Z,2.97
2018-06-17T12:15:03.673Z,2.57
2018-06-17T12:17:36.758Z,3.07
2018-06-17T12:20:09.726Z,2.40
2018-06-17T12:22:41.098Z,2.70
2018-06-17T12:25:13.092Z,2.53
2018-06-17T12:27:44.697Z,2.30
2018-06-17T12:30:17.103Z,2.40
2018-06-17T12:32:48.413Z,2.50
2018-06-17T12:37:52.768Z,2.30
2018-06-17T12:40:24.086Z,2.43
2018-06-17T12:42:55.737Z,1.70
2018-06-17T12:45:28.397Z,1.90
2018-06-17T12:48:00.077Z,2.17
2018-06-17T12:50:31.809Z,2.10
2018-06-17T12:53:05.895Z,2.40
2018-06-17T12:58:15.824Z,1.90
2018-06-17T13:00:48.556Z,1.97
2018-06-17T13:03:20.709Z,1.60
2018-06-17T13:05:52.737Z,2.00
2018-06-17T13:08:24.868Z,2.00
2018-06-17T13:10:56.768Z,1.37
2018-06-17T13:13:30.107Z,2.00
2018-06-17T13:16:01.531Z,1.77
2018-06-17T13:18:32.863Z,2.00
2018-06-17T13:21:04.452Z,2.03
2018-06-17T13:23:35.854Z,1.80
2018-06-17T13:26:07.318Z,1.47
2018-06-17T13:28:39.042Z,1.60
2018-06-17T13:31:10.813Z,1.47
2018-06-17T13:33:42.789Z,2.07
2018-06-17T13:36:14.612Z,1.57
2018-06-17T13:38:46.251Z,1.70
2018-06-17T13:41:20.620Z,1.60
2018-06-17T13:43:52.163Z,1.87
2018-06-17T13:46:23.478Z,1.47
2018-06-17T13:48:55.097Z,2.23
2018-06-17T13:51:26.686Z,1.57
2018-06-17T13:54:00.646Z,1.40
2018-06-17T13:56:32.232Z,1.50
2018-06-17T13:59:04.703Z,1.63
2018-06-17T14:01:36.870Z,1.40
2018-06-17T14:04:09.165Z,1.87
2018-06-17T14:06:40.902Z,1.70
2018-06-17T14:09:12.802Z,1.80
2018-06-17T14:11:44.117Z,1.90
2018-06-17T14:14:15.756Z,1.83
2018-06-17T14:16:47.631Z,1.40
2018-06-17T14:19:19.564Z,1.90
2018-06-17T14:21:51.176Z,1.50
2018-06-17T14:24:22.831Z,1.67
2018-06-17T14:26:54.319Z,1.77
2018-06-17T14:29:25.685Z,1.63
2018-06-17T14:31:58.149Z,1.60
2018-06-17T14:34:32.470Z,1.57
2018-06-17T14:37:04.124Z,1.70
2018-06-17T14:39:36.023Z,1.70
2018-06-17T14:42:12.708Z,1.50
2018-06-17T14:44:49.015Z,1.37
2018-06-17T14:47:25.287Z,1.30
2018-06-17T14:50:01.762Z,1.20
2018-06-17T14:53:38.835Z,1.20
2018-06-17T14:56:11.515Z,1.40
2018-06-17T14:58:43.019Z,1.30
2018-06-17T15:01:14.633Z,1.10
2018-06-17T15:03:46.383Z,1.20
2018-06-17T15:06:17.770Z,1.27
2018-06-17T15:08:51.426Z,1.40
2018-06-17T15:11:23.193Z,1.60
2018-06-17T15:13:56.225Z,1.70
2018-06-17T15:16:27.752Z,1.13
2018-06-17T15:18:59.652Z,1.23
2018-06-17T15:21:32.060Z,1.20
2018-06-17T15:24:04.074Z,1.57
2018-06-17T15:26:37.416Z,1.27
2018-06-17T15:29:10.201Z,1.20
2018-06-17T15:31:46.753Z,1.50
2018-06-17T15:34:24.181Z,1.30
2018-06-17T15:37:00.484Z,1.50
2018-06-17T15:39:37.777Z,1.30
2018-06-17T15:42:09.303Z,1.40
2018-06-17T15:44:40.976Z,1.37
2018-06-17T15:47:12.601Z,1.10
2018-06-17T15:49:44.638Z,0.90
2018-06-17T15:52:17.591Z,1.00
2018-06-17T15:54:49.641Z,1.13
2018-06-17T15:57:24.415Z,1.50
2018-06-17T15:59:56.134Z,1.20
2018-06-17T16:02:27.664Z,1.33
2018-06-17T16:04:59.631Z,2.77
2018-06-17T16:07:30.997Z,1.00
2018-06-17T16:10:05.552Z,1.23
2018-06-17T16:12:41.943Z,1.10
2018-06-17T16:15:20.553Z,1.33
2018-06-17T16:17:57.217Z,1.20
2018-06-17T16:20:33.623Z,1.30
2018-06-17T16:23:05.194Z,1.80
2018-06-17T16:25:39.204Z,2.07
2018-06-17T16:28:12.608Z,1.67
2018-06-17T16:30:44.265Z,1.37
2018-06-17T16:33:15.516Z,1.40
2018-06-17T16:35:47.156Z,1.37
2018-06-17T16:38:18.781Z,1.50
2018-06-17T16:40:52.194Z,1.30
2018-06-17T16:43:23.935Z,1.57
2018-06-17T16:45:56.976Z,1.10
2018-06-17T16:48:28.833Z,1.67
2018-06-17T16:51:05.054Z,1.20
2018-06-17T16:53:41.187Z,1.60
2018-06-17T16:56:17.645Z,1.50
2018-06-17T16:58:54.036Z,1.37
2018-06-17T17:01:25.914Z,1.60
2018-06-17T17:03:58.315Z,1.47
2018-06-17T17:06:30.178Z,1.67
2018-06-17T17:09:01.889Z,1.97
2018-06-17T17:11:34.375Z,1.63
2018-06-17T17:14:06.613Z,1.57
2018-06-17T17:16:39.092Z,1.67
2018-06-17T17:19:10.630Z,2.37
2018-06-17T17:21:41.968Z,1.93
2018-06-17T17:24:14.095Z,1.80
2018-06-17T17:26:45.606Z,2.30
2018-06-17T17:29:18.188Z,1.80
2018-06-17T17:31:54.283Z,1.40
2018-06-17T17:34:32.365Z,1.57
2018-06-17T17:37:09.417Z,1.40
2018-06-17T17:39:45.737Z,1.80
2018-06-17T17:42:17.512Z,1.63
2018-06-17T17:44:53.982Z,1.77
2018-06-17T17:47:30.697Z,1.70
2018-06-17T17:50:02.515Z,1.60
2018-06-17T17:52:36.282Z,1.70
2018-06-17T17:55:18.046Z,1.50
2018-06-17T17:57:55.839Z,1.80
2018-06-17T18:00:31.505Z,1.70
2018-06-17T18:03:06.030Z,1.80
2018-06-17T18:06:02.482Z,2.10
2018-06-17T18:08:37.958Z,2.07
2018-06-17T18:11:09.247Z,1.40
2018-06-17T18:13:46.532Z,1.50
2018-06-17T18:16:27.586Z,1.70
2018-06-17T18:19:01.283Z,2.00
2018-06-17T18:21:45.684Z,1.70
2018-06-17T18:24:20.703Z,2.03
2018-06-17T18:27:00.228Z,2.00
2018-06-17T18:29:39.803Z,2.10
2018-06-17T18:32:18.319Z,1.67
2018-06-17T18:37:01.717Z,1.80
2018-06-17T18:39:33.883Z,1.97
2018-06-17T18:42:05.554Z,1.73
2018-06-17T18:44:37.202Z,2.17
2018-06-17T18:47:08.704Z,1.87
2018-06-17T18:49:40.277Z,1.67
2018-06-17T18:52:12.455Z,1.97
2018-06-17T18:54:44.317Z,2.30
2018-06-17T18:57:15.582Z,1.83
2018-06-17T18:59:47.288Z,1.80
2018-06-17T19:02:18.655Z,2.00
2018-06-17T19:04:50.049Z,1.87
2018-06-17T19:07:21.926Z,1.90
2018-06-17T19:09:59.212Z,1.77
2018-06-17T19:12:36.304Z,1.87
2018-06-17T19:15:13.871Z,2.00
2018-06-17T19:17:50.441Z,1.57
2018-06-17T19:20:24.207Z,2.47
2018-06-17T19:22:57.054Z,1.63
2018-06-17T19:25:30.473Z,1.73
2018-06-17T19:28:02.490Z,1.83
2018-06-17T19:30:33.910Z,2.00
2018-06-17T19:33:06.059Z,1.93
2018-06-17T19:35:39.563Z,1.90
2018-06-17T19:38:11.106Z,1.87
2018-06-17T19:40:43.934Z,1.50
2018-06-17T19:43:15.254Z,1.80
2018-06-17T19:45:46.521Z,1.87
2018-06-17T19:48:18.539Z,2.30
2018-06-17T19:50:56.104Z,1.83
2018-06-17T19:53:33.101Z,1.93
2018-06-17T19:56:15.905Z,1.60
2018-06-17T19:58:52.334Z,1.23
2018-06-17T20:01:24.134Z,2.20
2018-06-17T20:03:56.611Z,2.17
2018-06-17T20:06:30.922Z,2.27
2018-06-17T20:09:05.664Z,1.73
2018-06-17T20:11:37.989Z,1.80
2018-06-17T20:14:11.090Z,2.10
2018-06-17T20:16:43.395Z,1.80
2018-06-17T20:19:16.166Z,1.60
2018-06-17T20:21:48.301Z,1.90
2018-06-17T20:24:20.047Z,2.00
2018-06-17T20:26:51.719Z,2.27
2018-06-17T20:29:24.284Z,1.90
2018-06-17T20:32:01.437Z,2.20
2018-06-17T20:34:37.529Z,1.80
2018-06-17T20:37:13.776Z,2.10
2018-06-17T20:39:50.848Z,1.97
2018-06-17T20:42:27.950Z,1.90
2018-06-17T20:45:00.813Z,1.80
2018-06-17T20:47:33.328Z,1.87
2018-06-17T20:50:04.723Z,2.00
2018-06-17T20:52:37.420Z,1.83
2018-06-17T20:55:09.759Z,1.80
2018-06-17T20:57:41.345Z,2.03
2018-06-17T21:00:13.264Z,2.13
2018-06-17T21:02:45.075Z,1.93
2018-06-17T21:05:16.607Z,2.70
2018-06-17T21:07:47.970Z,2.60
2018-06-17T21:10:19.626Z,2.43
2018-06-17T21:12:50.957Z,2.43
2018-06-17T21:15:22.446Z,2.20
2018-06-17T21:17:54.028Z,2.90
2018-06-17T21:20:29.875Z,2.40
2018-06-17T21:23:06.136Z,2.30
2018-06-17T21:25:41.783Z,2.07
2018-06-17T21:28:13.385Z,2.33
2018-06-17T21:30:44.584Z,2.23
2018-06-17T21:33:16.251Z,2.30
2018-06-17T21:35:49.133Z,2.60
2018-06-17T21:38:21.810Z,2.50
2018-06-17T21:40:53.697Z,2.17
2018-06-17T21:43:25.219Z,2.40
2018-06-17T21:45:58.275Z,3.20
2018-06-17T21:48:30.122Z,2.33
2018-06-17T21:51:02.926Z,2.23
2018-06-17T21:53:34.867Z,2.80
2018-06-17T21:56:08.002Z,2.20
2018-06-17T21:58:43.788Z,2.37
2018-06-17T22:01:15.933Z,2.50
2018-06-17T22:03:48.152Z,2.53
2018-06-17T22:06:19.549Z,2.60
2018-06-17T22:08:57.280Z,2.50
2018-06-17T22:11:34.239Z,2.70
2018-06-17T22:14:10.646Z,2.50
2018-06-17T22:16:46.413Z,2.63
2018-06-17T22:19:21.169Z,2.83
2018-06-17T22:21:52.343Z,2.33
2018-06-17T22:24:23.636Z,2.93
2018-06-17T22:26:55.760Z,2.67
2018-06-17T22:29:27.154Z,2.63
2018-06-17T22:31:58.739Z,2.60
2018-06-17T22:34:30.769Z,3.00
2018-06-17T22:37:02.024Z,2.83
2018-06-17T22:39:33.583Z,3.20
2018-06-17T22:42:04.860Z,2.30
2018-06-17T22:44:36.163Z,3.10
2018-06-17T22:47:08.063Z,3.13
2018-06-17T22:49:39.309Z,2.67
2018-06-17T22:52:10.939Z,2.73
2018-06-17T22:54:50.198Z,2.40
2018-06-17T22:57:26.419Z,3.17
2018-06-17T23:00:02.172Z,2.83
2018-06-17T23:02:38.335Z,2.87
2018-06-17T23:05:14.604Z,2.70
2018-06-17T23:07:50.787Z,2.50
2018-06-17T23:10:22.715Z,2.60
2018-06-17T23:12:54.706Z,2.47
2018-06-17T23:15:26.668Z,2.87
2018-06-17T23:17:57.816Z,2.70
2018-06-17T23:20:29.368Z,2.63
2018-06-17T23:23:03.499Z,2.93
2018-06-17T23:25:35.155Z,3.13
2018-06-17T23:28:06.765Z,2.73
2018-06-17T23:30:38.163Z,3.30
2018-06-17T23:33:09.820Z,3.00
2018-06-17T23:35:41.472Z,3.27
2018-06-17T23:38:12.798Z,2.80
2018-06-17T23:40:44.838Z,3.43
2018-06-17T23:43:16.112Z,3.17
2018-06-17T23:45:53.742Z,2.97
2018-06-17T23:48:30.700Z,3.00
2018-06-17T23:54:57.747Z,3.30
2018-06-17T23:57:59.476Z,3.00
